<?xml version="1.0" encoding="UTF-8" standalone="no" ?>
<gpx xmlns="http://www.topografix.com/GPX/1/1" xmlns:xsi="http://www.w3.org/2001/XMLSchema-instance" xsi:schemaLocation="http://www.topografix.com/GPX/1/1 http://www.topografix.com/GPX/1/1/gpx.xsd" version="1.1" creator="VisuGPX - https://www.visugpx.com">
  <metadata>
    <name>Clermont-Ferrand - Massat - Pau par François</name>
    <desc><![CDATA[Trajet effectué par François sur la "Diagonale du vide" en aout 2020]]></desc>
  </metadata>
  <trk>
    <name><![CDATA[route115]]></name>
    <trkseg>
      <trkpt lat="42.81226" lon="2.50317">
        <ele>259.7</ele>
        <time>2020-08-28T06:16:40Z</time>
      </trkpt>
      <trkpt lat="42.81136" lon="2.50349">
        <ele>257.6</ele>
        <time>2020-08-28T06:17:15Z</time>
      </trkpt>
      <trkpt lat="42.81053" lon="2.50298">
        <ele>256.4</ele>
        <time>2020-08-28T06:17:50Z</time>
      </trkpt>
      <trkpt lat="42.80949" lon="2.50321">
        <ele>254.4</ele>
        <time>2020-08-28T06:18:25Z</time>
      </trkpt>
      <trkpt lat="42.80927" lon="2.50198">
        <ele>252.2</ele>
        <time>2020-08-28T06:19:29Z</time>
      </trkpt>
      <trkpt lat="42.80923" lon="2.50059">
        <ele>251.1</ele>
        <time>2020-08-28T06:20:04Z</time>
      </trkpt>
      <trkpt lat="42.80902" lon="2.49934">
        <ele>250.4</ele>
        <time>2020-08-28T06:20:34Z</time>
      </trkpt>
      <trkpt lat="42.8089" lon="2.49811">
        <ele>250.1</ele>
        <time>2020-08-28T06:21:03Z</time>
      </trkpt>
      <trkpt lat="42.80864" lon="2.49685">
        <ele>250.3</ele>
        <time>2020-08-28T06:21:33Z</time>
      </trkpt>
      <trkpt lat="42.80849" lon="2.4955">
        <ele>250.4</ele>
        <time>2020-08-28T06:22:03Z</time>
      </trkpt>
      <trkpt lat="42.8083" lon="2.49416">
        <ele>251.5</ele>
        <time>2020-08-28T06:22:48Z</time>
      </trkpt>
      <trkpt lat="42.80809" lon="2.49284">
        <ele>252.3</ele>
        <time>2020-08-28T06:23:23Z</time>
      </trkpt>
      <trkpt lat="42.8079" lon="2.49162">
        <ele>253</ele>
        <time>2020-08-28T06:23:53Z</time>
      </trkpt>
      <trkpt lat="42.80769" lon="2.49022">
        <ele>253.6</ele>
        <time>2020-08-28T06:24:28Z</time>
      </trkpt>
      <trkpt lat="42.80749" lon="2.48898">
        <ele>254.5</ele>
        <time>2020-08-28T06:24:48Z</time>
      </trkpt>
      <trkpt lat="42.80728" lon="2.48769">
        <ele>254.5</ele>
        <time>2020-08-28T06:25:08Z</time>
      </trkpt>
      <trkpt lat="42.80707" lon="2.48639">
        <ele>254.4</ele>
        <time>2020-08-28T06:25:33Z</time>
      </trkpt>
      <trkpt lat="42.80684" lon="2.48501">
        <ele>254.3</ele>
        <time>2020-08-28T06:25:58Z</time>
      </trkpt>
      <trkpt lat="42.80663" lon="2.48375">
        <ele>254.2</ele>
        <time>2020-08-28T06:26:28Z</time>
      </trkpt>
      <trkpt lat="42.80641" lon="2.48242">
        <ele>254.4</ele>
        <time>2020-08-28T06:27:08Z</time>
      </trkpt>
      <trkpt lat="42.80667" lon="2.48111">
        <ele>255.2</ele>
        <time>2020-08-28T06:27:53Z</time>
      </trkpt>
      <trkpt lat="42.80675" lon="2.47989">
        <ele>256.1</ele>
        <time>2020-08-28T06:28:33Z</time>
      </trkpt>
      <trkpt lat="42.80701" lon="2.47862">
        <ele>257</ele>
        <time>2020-08-28T06:29:18Z</time>
      </trkpt>
      <trkpt lat="42.80694" lon="2.47737">
        <ele>257.5</ele>
        <time>2020-08-28T06:29:53Z</time>
      </trkpt>
      <trkpt lat="42.80708" lon="2.47604">
        <ele>258</ele>
        <time>2020-08-28T06:30:33Z</time>
      </trkpt>
      <trkpt lat="42.80733" lon="2.47481">
        <ele>258.4</ele>
        <time>2020-08-28T06:31:03Z</time>
      </trkpt>
      <trkpt lat="42.80746" lon="2.47344">
        <ele>259.2</ele>
        <time>2020-08-28T06:31:33Z</time>
      </trkpt>
      <trkpt lat="42.80749" lon="2.47204">
        <ele>260.1</ele>
        <time>2020-08-28T06:32:03Z</time>
      </trkpt>
      <trkpt lat="42.80752" lon="2.47071">
        <ele>261.5</ele>
        <time>2020-08-28T06:32:33Z</time>
      </trkpt>
      <trkpt lat="42.80763" lon="2.46943">
        <ele>263.1</ele>
        <time>2020-08-28T06:32:58Z</time>
      </trkpt>
      <trkpt lat="42.80788" lon="2.46821">
        <ele>263.6</ele>
        <time>2020-08-28T06:33:46Z</time>
      </trkpt>
      <trkpt lat="42.80799" lon="2.46685">
        <ele>264.5</ele>
        <time>2020-08-28T06:34:47Z</time>
      </trkpt>
      <trkpt lat="42.80815" lon="2.46558">
        <ele>265.6</ele>
        <time>2020-08-28T06:35:07Z</time>
      </trkpt>
      <trkpt lat="42.80809" lon="2.46411">
        <ele>265.9</ele>
        <time>2020-08-28T06:35:27Z</time>
      </trkpt>
      <trkpt lat="42.80866" lon="2.46301">
        <ele>266.4</ele>
        <time>2020-08-28T06:36:02Z</time>
      </trkpt>
      <trkpt lat="42.80935" lon="2.46204">
        <ele>267.2</ele>
        <time>2020-08-28T06:36:27Z</time>
      </trkpt>
      <trkpt lat="42.80986" lon="2.46073">
        <ele>267.8</ele>
        <time>2020-08-28T06:36:52Z</time>
      </trkpt>
      <trkpt lat="42.81051" lon="2.45971">
        <ele>268</ele>
        <time>2020-08-28T06:37:22Z</time>
      </trkpt>
      <trkpt lat="42.81131" lon="2.45897">
        <ele>268.3</ele>
        <time>2020-08-28T06:37:57Z</time>
      </trkpt>
      <trkpt lat="42.81173" lon="2.45782">
        <ele>268.7</ele>
        <time>2020-08-28T06:38:32Z</time>
      </trkpt>
      <trkpt lat="42.81192" lon="2.45648">
        <ele>269.2</ele>
        <time>2020-08-28T06:39:07Z</time>
      </trkpt>
      <trkpt lat="42.81214" lon="2.45522">
        <ele>269.9</ele>
        <time>2020-08-28T06:39:42Z</time>
      </trkpt>
      <trkpt lat="42.81278" lon="2.4542">
        <ele>270.6</ele>
        <time>2020-08-28T06:40:17Z</time>
      </trkpt>
      <trkpt lat="42.81317" lon="2.45293">
        <ele>271.9</ele>
        <time>2020-08-28T06:42:11Z</time>
      </trkpt>
      <trkpt lat="42.81349" lon="2.45167">
        <ele>272.4</ele>
        <time>2020-08-28T06:42:46Z</time>
      </trkpt>
      <trkpt lat="42.81364" lon="2.45045">
        <ele>272.7</ele>
        <time>2020-08-28T06:43:21Z</time>
      </trkpt>
      <trkpt lat="42.81385" lon="2.44925">
        <ele>273.4</ele>
        <time>2020-08-28T06:44:07Z</time>
      </trkpt>
      <trkpt lat="42.81408" lon="2.44807">
        <ele>274.8</ele>
        <time>2020-08-28T06:44:48Z</time>
      </trkpt>
      <trkpt lat="42.81433" lon="2.44678">
        <ele>275.6</ele>
        <time>2020-08-28T06:45:18Z</time>
      </trkpt>
      <trkpt lat="42.81449" lon="2.44548">
        <ele>276.7</ele>
        <time>2020-08-28T06:45:57Z</time>
      </trkpt>
      <trkpt lat="42.8145" lon="2.44414">
        <ele>278.5</ele>
        <time>2020-08-28T06:46:54Z</time>
      </trkpt>
      <trkpt lat="42.81501" lon="2.44308">
        <ele>280</ele>
        <time>2020-08-28T06:47:34Z</time>
      </trkpt>
      <trkpt lat="42.81569" lon="2.4423">
        <ele>281.2</ele>
        <time>2020-08-28T06:48:09Z</time>
      </trkpt>
      <trkpt lat="42.81648" lon="2.44169">
        <ele>282</ele>
        <time>2020-08-28T06:48:44Z</time>
      </trkpt>
      <trkpt lat="42.8172" lon="2.44078">
        <ele>283</ele>
        <time>2020-08-28T06:49:29Z</time>
      </trkpt>
      <trkpt lat="42.81771" lon="2.43978">
        <ele>284.4</ele>
        <time>2020-08-28T06:50:14Z</time>
      </trkpt>
      <trkpt lat="42.81855" lon="2.43933">
        <ele>286.1</ele>
        <time>2020-08-28T06:51:01Z</time>
      </trkpt>
      <trkpt lat="42.81925" lon="2.43856">
        <ele>287.9</ele>
        <time>2020-08-28T06:51:48Z</time>
      </trkpt>
      <trkpt lat="42.82003" lon="2.43787">
        <ele>289.7</ele>
        <time>2020-08-28T06:52:34Z</time>
      </trkpt>
      <trkpt lat="42.82075" lon="2.43707">
        <ele>291.6</ele>
        <time>2020-08-28T06:53:24Z</time>
      </trkpt>
      <trkpt lat="42.82148" lon="2.43628">
        <ele>293.3</ele>
        <time>2020-08-28T06:54:09Z</time>
      </trkpt>
      <trkpt lat="42.82237" lon="2.43597">
        <ele>295.3</ele>
        <time>2020-08-28T06:55:07Z</time>
      </trkpt>
      <trkpt lat="42.82292" lon="2.43502">
        <ele>297.9</ele>
        <time>2020-08-28T06:56:41Z</time>
      </trkpt>
      <trkpt lat="42.82349" lon="2.43404">
        <ele>300.2</ele>
        <time>2020-08-28T06:57:34Z</time>
      </trkpt>
      <trkpt lat="42.82429" lon="2.43332">
        <ele>302.3</ele>
        <time>2020-08-28T06:58:29Z</time>
      </trkpt>
      <trkpt lat="42.82434" lon="2.43201">
        <ele>304.5</ele>
        <time>2020-08-28T06:58:56Z</time>
      </trkpt>
      <trkpt lat="42.8247" lon="2.43081">
        <ele>310.6</ele>
        <time>2020-08-28T06:59:49Z</time>
      </trkpt>
      <trkpt lat="42.82469" lon="2.42948">
        <ele>326.9</ele>
        <time>2020-08-28T07:00:57Z</time>
      </trkpt>
      <trkpt lat="42.825" lon="2.42825">
        <ele>337.6</ele>
        <time>2020-08-28T07:02:03Z</time>
      </trkpt>
      <trkpt lat="42.82528" lon="2.42699">
        <ele>344.6</ele>
        <time>2020-08-28T07:03:09Z</time>
      </trkpt>
      <trkpt lat="42.82559" lon="2.42578">
        <ele>350.1</ele>
        <time>2020-08-28T07:04:14Z</time>
      </trkpt>
      <trkpt lat="42.82622" lon="2.42478">
        <ele>357</ele>
        <time>2020-08-28T07:05:18Z</time>
      </trkpt>
      <trkpt lat="42.82665" lon="2.42369">
        <ele>361.3</ele>
        <time>2020-08-28T07:06:12Z</time>
      </trkpt>
      <trkpt lat="42.82703" lon="2.42259">
        <ele>363.9</ele>
        <time>2020-08-28T07:06:54Z</time>
      </trkpt>
      <trkpt lat="42.82769" lon="2.42163">
        <ele>366.9</ele>
        <time>2020-08-28T07:07:52Z</time>
      </trkpt>
      <trkpt lat="42.82692" lon="2.42065">
        <ele>368.8</ele>
        <time>2020-08-28T07:08:33Z</time>
      </trkpt>
      <trkpt lat="42.82653" lon="2.41945">
        <ele>370.4</ele>
        <time>2020-08-28T07:09:20Z</time>
      </trkpt>
      <trkpt lat="42.82613" lon="2.4182">
        <ele>372.3</ele>
        <time>2020-08-28T07:10:23Z</time>
      </trkpt>
      <trkpt lat="42.82566" lon="2.417">
        <ele>374.2</ele>
        <time>2020-08-28T07:11:28Z</time>
      </trkpt>
      <trkpt lat="42.82523" lon="2.41582">
        <ele>376</ele>
        <time>2020-08-28T07:12:32Z</time>
      </trkpt>
      <trkpt lat="42.82514" lon="2.41457">
        <ele>378</ele>
        <time>2020-08-28T07:13:35Z</time>
      </trkpt>
      <trkpt lat="42.82488" lon="2.41332">
        <ele>379.8</ele>
        <time>2020-08-28T07:14:37Z</time>
      </trkpt>
      <trkpt lat="42.82441" lon="2.41221">
        <ele>381.7</ele>
        <time>2020-08-28T07:15:36Z</time>
      </trkpt>
      <trkpt lat="42.82452" lon="2.41092">
        <ele>384.6</ele>
        <time>2020-08-28T07:17:07Z</time>
      </trkpt>
      <trkpt lat="42.82453" lon="2.40964">
        <ele>385.5</ele>
        <time>2020-08-28T07:17:22Z</time>
      </trkpt>
      <trkpt lat="42.82439" lon="2.40809">
        <ele>385</ele>
        <time>2020-08-28T07:17:37Z</time>
      </trkpt>
      <trkpt lat="42.82417" lon="2.4064">
        <ele>385.4</ele>
        <time>2020-08-28T07:17:52Z</time>
      </trkpt>
      <trkpt lat="42.82343" lon="2.40546">
        <ele>384.4</ele>
        <time>2020-08-28T07:18:07Z</time>
      </trkpt>
      <trkpt lat="42.82272" lon="2.40418">
        <ele>382.5</ele>
        <time>2020-08-28T07:18:27Z</time>
      </trkpt>
      <trkpt lat="42.82217" lon="2.40294">
        <ele>380.2</ele>
        <time>2020-08-28T07:18:42Z</time>
      </trkpt>
      <trkpt lat="42.82194" lon="2.40162">
        <ele>378</ele>
        <time>2020-08-28T07:18:57Z</time>
      </trkpt>
      <trkpt lat="42.8222" lon="2.40033">
        <ele>372.9</ele>
        <time>2020-08-28T07:19:12Z</time>
      </trkpt>
      <trkpt lat="42.8212" lon="2.39933">
        <ele>368.6</ele>
        <time>2020-08-28T07:19:27Z</time>
      </trkpt>
      <trkpt lat="42.82022" lon="2.39953">
        <ele>365.6</ele>
        <time>2020-08-28T07:19:42Z</time>
      </trkpt>
      <trkpt lat="42.81925" lon="2.39938">
        <ele>361.1</ele>
        <time>2020-08-28T07:19:57Z</time>
      </trkpt>
      <trkpt lat="42.81834" lon="2.39987">
        <ele>353.7</ele>
        <time>2020-08-28T07:20:12Z</time>
      </trkpt>
      <trkpt lat="42.81744" lon="2.40065">
        <ele>348.4</ele>
        <time>2020-08-28T07:20:27Z</time>
      </trkpt>
      <trkpt lat="42.81634" lon="2.40043">
        <ele>348.4</ele>
        <time>2020-08-28T07:20:47Z</time>
      </trkpt>
      <trkpt lat="42.81548" lon="2.40087">
        <ele>344</ele>
        <time>2020-08-28T07:21:07Z</time>
      </trkpt>
      <trkpt lat="42.81467" lon="2.40021">
        <ele>342.6</ele>
        <time>2020-08-28T07:21:32Z</time>
      </trkpt>
      <trkpt lat="42.81404" lon="2.39917">
        <ele>341.9</ele>
        <time>2020-08-28T07:22:02Z</time>
      </trkpt>
      <trkpt lat="42.81433" lon="2.39778">
        <ele>337</ele>
        <time>2020-08-28T07:22:32Z</time>
      </trkpt>
      <trkpt lat="42.81377" lon="2.3965">
        <ele>334.9</ele>
        <time>2020-08-28T07:22:57Z</time>
      </trkpt>
      <trkpt lat="42.81377" lon="2.39524">
        <ele>334.4</ele>
        <time>2020-08-28T07:23:39Z</time>
      </trkpt>
      <trkpt lat="42.81409" lon="2.39397">
        <ele>334.9</ele>
        <time>2020-08-28T07:24:43Z</time>
      </trkpt>
      <trkpt lat="42.81446" lon="2.39276">
        <ele>337</ele>
        <time>2020-08-28T07:25:41Z</time>
      </trkpt>
      <trkpt lat="42.81524" lon="2.39192">
        <ele>339.3</ele>
        <time>2020-08-28T07:26:32Z</time>
      </trkpt>
      <trkpt lat="42.81571" lon="2.3907">
        <ele>340.9</ele>
        <time>2020-08-28T07:27:12Z</time>
      </trkpt>
      <trkpt lat="42.81615" lon="2.38943">
        <ele>342.1</ele>
        <time>2020-08-28T07:27:42Z</time>
      </trkpt>
      <trkpt lat="42.81656" lon="2.38825">
        <ele>343.6</ele>
        <time>2020-08-28T07:28:07Z</time>
      </trkpt>
      <trkpt lat="42.8161" lon="2.38691">
        <ele>344.3</ele>
        <time>2020-08-28T07:28:37Z</time>
      </trkpt>
      <trkpt lat="42.81574" lon="2.38565">
        <ele>344.2</ele>
        <time>2020-08-28T07:29:02Z</time>
      </trkpt>
      <trkpt lat="42.81524" lon="2.38459">
        <ele>344.2</ele>
        <time>2020-08-28T07:29:22Z</time>
      </trkpt>
      <trkpt lat="42.81542" lon="2.38323">
        <ele>343.8</ele>
        <time>2020-08-28T07:29:42Z</time>
      </trkpt>
      <trkpt lat="42.81579" lon="2.38187">
        <ele>343.7</ele>
        <time>2020-08-28T07:30:07Z</time>
      </trkpt>
      <trkpt lat="42.8162" lon="2.38066">
        <ele>343.6</ele>
        <time>2020-08-28T07:30:42Z</time>
      </trkpt>
      <trkpt lat="42.81671" lon="2.37964">
        <ele>343.6</ele>
        <time>2020-08-28T07:31:17Z</time>
      </trkpt>
      <trkpt lat="42.81618" lon="2.37829">
        <ele>343.8</ele>
        <time>2020-08-28T07:31:42Z</time>
      </trkpt>
      <trkpt lat="42.81526" lon="2.37804">
        <ele>343.8</ele>
        <time>2020-08-28T07:32:02Z</time>
      </trkpt>
      <trkpt lat="42.81422" lon="2.37769">
        <ele>343.8</ele>
        <time>2020-08-28T07:32:27Z</time>
      </trkpt>
      <trkpt lat="42.81376" lon="2.37654">
        <ele>343.6</ele>
        <time>2020-08-28T07:34:04Z</time>
      </trkpt>
      <trkpt lat="42.81281" lon="2.37649">
        <ele>343.5</ele>
        <time>2020-08-28T07:35:04Z</time>
      </trkpt>
      <trkpt lat="42.81206" lon="2.37575">
        <ele>343.6</ele>
        <time>2020-08-28T07:35:51Z</time>
      </trkpt>
      <trkpt lat="42.81238" lon="2.37442">
        <ele>345.4</ele>
        <time>2020-08-28T07:40:44Z</time>
      </trkpt>
      <trkpt lat="42.81258" lon="2.37316">
        <ele>345.8</ele>
        <time>2020-08-28T07:41:40Z</time>
      </trkpt>
      <trkpt lat="42.81193" lon="2.37222">
        <ele>346.1</ele>
        <time>2020-08-28T07:42:15Z</time>
      </trkpt>
      <trkpt lat="42.81196" lon="2.37088">
        <ele>346.3</ele>
        <time>2020-08-28T07:42:45Z</time>
      </trkpt>
      <trkpt lat="42.81201" lon="2.36953">
        <ele>346.6</ele>
        <time>2020-08-28T07:43:25Z</time>
      </trkpt>
      <trkpt lat="42.81205" lon="2.36829">
        <ele>347</ele>
        <time>2020-08-28T07:44:13Z</time>
      </trkpt>
      <trkpt lat="42.81209" lon="2.36694">
        <ele>347.6</ele>
        <time>2020-08-28T07:45:11Z</time>
      </trkpt>
      <trkpt lat="42.81218" lon="2.36569">
        <ele>348.1</ele>
        <time>2020-08-28T07:46:05Z</time>
      </trkpt>
      <trkpt lat="42.81249" lon="2.36453">
        <ele>348.9</ele>
        <time>2020-08-28T07:46:58Z</time>
      </trkpt>
      <trkpt lat="42.81264" lon="2.36319">
        <ele>349.6</ele>
        <time>2020-08-28T07:47:49Z</time>
      </trkpt>
      <trkpt lat="42.81274" lon="2.36189">
        <ele>350.3</ele>
        <time>2020-08-28T07:48:41Z</time>
      </trkpt>
      <trkpt lat="42.81286" lon="2.36058">
        <ele>350.9</ele>
        <time>2020-08-28T07:49:32Z</time>
      </trkpt>
      <trkpt lat="42.81296" lon="2.35926">
        <ele>351.4</ele>
        <time>2020-08-28T07:50:22Z</time>
      </trkpt>
      <trkpt lat="42.81295" lon="2.35786">
        <ele>352</ele>
        <time>2020-08-28T07:50:52Z</time>
      </trkpt>
      <trkpt lat="42.81278" lon="2.3566">
        <ele>351.9</ele>
        <time>2020-08-28T07:51:07Z</time>
      </trkpt>
      <trkpt lat="42.81276" lon="2.35513">
        <ele>352.1</ele>
        <time>2020-08-28T07:51:22Z</time>
      </trkpt>
      <trkpt lat="42.81243" lon="2.35373">
        <ele>352.1</ele>
        <time>2020-08-28T07:51:42Z</time>
      </trkpt>
      <trkpt lat="42.8124" lon="2.35246">
        <ele>351.2</ele>
        <time>2020-08-28T07:52:02Z</time>
      </trkpt>
      <trkpt lat="42.81274" lon="2.35107">
        <ele>352.4</ele>
        <time>2020-08-28T07:52:27Z</time>
      </trkpt>
      <trkpt lat="42.81284" lon="2.34984">
        <ele>352.9</ele>
        <time>2020-08-28T07:52:52Z</time>
      </trkpt>
      <trkpt lat="42.81287" lon="2.34851">
        <ele>353.4</ele>
        <time>2020-08-28T07:53:27Z</time>
      </trkpt>
      <trkpt lat="42.8129" lon="2.34716">
        <ele>352.8</ele>
        <time>2020-08-28T07:54:07Z</time>
      </trkpt>
      <trkpt lat="42.8129" lon="2.34581">
        <ele>354.1</ele>
        <time>2020-08-28T07:54:47Z</time>
      </trkpt>
      <trkpt lat="42.81287" lon="2.34456">
        <ele>354.5</ele>
        <time>2020-08-28T07:55:22Z</time>
      </trkpt>
      <trkpt lat="42.81283" lon="2.34332">
        <ele>354.6</ele>
        <time>2020-08-28T07:55:57Z</time>
      </trkpt>
      <trkpt lat="42.81281" lon="2.34198">
        <ele>354.7</ele>
        <time>2020-08-28T07:56:37Z</time>
      </trkpt>
      <trkpt lat="42.81281" lon="2.34075">
        <ele>358.5</ele>
        <time>2020-08-28T07:58:32Z</time>
      </trkpt>
      <trkpt lat="42.81257" lon="2.3395">
        <ele>362.9</ele>
        <time>2020-08-28T07:59:17Z</time>
      </trkpt>
      <trkpt lat="42.81245" lon="2.33816">
        <ele>365.7</ele>
        <time>2020-08-28T08:00:07Z</time>
      </trkpt>
      <trkpt lat="42.81257" lon="2.33686">
        <ele>367.5</ele>
        <time>2020-08-28T08:00:42Z</time>
      </trkpt>
      <trkpt lat="42.81302" lon="2.33562">
        <ele>368.9</ele>
        <time>2020-08-28T08:01:12Z</time>
      </trkpt>
      <trkpt lat="42.81327" lon="2.3343">
        <ele>370</ele>
        <time>2020-08-28T08:01:42Z</time>
      </trkpt>
      <trkpt lat="42.81349" lon="2.33307">
        <ele>371.1</ele>
        <time>2020-08-28T08:02:12Z</time>
      </trkpt>
      <trkpt lat="42.81373" lon="2.3318">
        <ele>372.8</ele>
        <time>2020-08-28T08:02:52Z</time>
      </trkpt>
      <trkpt lat="42.81367" lon="2.33045">
        <ele>389.1</ele>
        <time>2020-08-28T08:11:12Z</time>
      </trkpt>
      <trkpt lat="42.81345" lon="2.32912">
        <ele>391</ele>
        <time>2020-08-28T08:11:57Z</time>
      </trkpt>
      <trkpt lat="42.81339" lon="2.32788">
        <ele>391.9</ele>
        <time>2020-08-28T08:12:38Z</time>
      </trkpt>
      <trkpt lat="42.81347" lon="2.32665">
        <ele>392.5</ele>
        <time>2020-08-28T08:13:18Z</time>
      </trkpt>
      <trkpt lat="42.81357" lon="2.32541">
        <ele>392.9</ele>
        <time>2020-08-28T08:13:58Z</time>
      </trkpt>
      <trkpt lat="42.81348" lon="2.32409">
        <ele>393.2</ele>
        <time>2020-08-28T08:14:38Z</time>
      </trkpt>
      <trkpt lat="42.81333" lon="2.32278">
        <ele>393.6</ele>
        <time>2020-08-28T08:15:18Z</time>
      </trkpt>
      <trkpt lat="42.81347" lon="2.32137">
        <ele>394.2</ele>
        <time>2020-08-28T08:15:58Z</time>
      </trkpt>
      <trkpt lat="42.81308" lon="2.32018">
        <ele>394.8</ele>
        <time>2020-08-28T08:16:28Z</time>
      </trkpt>
      <trkpt lat="42.81276" lon="2.31887">
        <ele>395.2</ele>
        <time>2020-08-28T08:16:58Z</time>
      </trkpt>
      <trkpt lat="42.8128" lon="2.31751">
        <ele>395.7</ele>
        <time>2020-08-28T08:17:33Z</time>
      </trkpt>
      <trkpt lat="42.81251" lon="2.31622">
        <ele>396.5</ele>
        <time>2020-08-28T08:18:08Z</time>
      </trkpt>
      <trkpt lat="42.81218" lon="2.31489">
        <ele>397.3</ele>
        <time>2020-08-28T08:18:43Z</time>
      </trkpt>
      <trkpt lat="42.81186" lon="2.31365">
        <ele>398.4</ele>
        <time>2020-08-28T08:19:18Z</time>
      </trkpt>
      <trkpt lat="42.81143" lon="2.31239">
        <ele>399.7</ele>
        <time>2020-08-28T08:19:53Z</time>
      </trkpt>
      <trkpt lat="42.81101" lon="2.31123">
        <ele>401.2</ele>
        <time>2020-08-28T08:20:28Z</time>
      </trkpt>
      <trkpt lat="42.81057" lon="2.30998">
        <ele>402.8</ele>
        <time>2020-08-28T08:21:03Z</time>
      </trkpt>
      <trkpt lat="42.81046" lon="2.30858">
        <ele>404.5</ele>
        <time>2020-08-28T08:21:38Z</time>
      </trkpt>
      <trkpt lat="42.80997" lon="2.30739">
        <ele>406.1</ele>
        <time>2020-08-28T08:22:13Z</time>
      </trkpt>
      <trkpt lat="42.80992" lon="2.30608">
        <ele>407.6</ele>
        <time>2020-08-28T08:22:48Z</time>
      </trkpt>
      <trkpt lat="42.81025" lon="2.30486">
        <ele>417.3</ele>
        <time>2020-08-28T08:26:34Z</time>
      </trkpt>
      <trkpt lat="42.81066" lon="2.30373">
        <ele>419.9</ele>
        <time>2020-08-28T08:27:19Z</time>
      </trkpt>
      <trkpt lat="42.81122" lon="2.30278">
        <ele>421.6</ele>
        <time>2020-08-28T08:27:59Z</time>
      </trkpt>
      <trkpt lat="42.81163" lon="2.3017">
        <ele>423.4</ele>
        <time>2020-08-28T08:28:47Z</time>
      </trkpt>
      <trkpt lat="42.81172" lon="2.30046">
        <ele>425.3</ele>
        <time>2020-08-28T08:29:37Z</time>
      </trkpt>
      <trkpt lat="42.81203" lon="2.29928">
        <ele>427.2</ele>
        <time>2020-08-28T08:30:27Z</time>
      </trkpt>
      <trkpt lat="42.81209" lon="2.29802">
        <ele>428.7</ele>
        <time>2020-08-28T08:31:07Z</time>
      </trkpt>
      <trkpt lat="42.81229" lon="2.29678">
        <ele>430.5</ele>
        <time>2020-08-28T08:31:53Z</time>
      </trkpt>
      <trkpt lat="42.81234" lon="2.29549">
        <ele>432.3</ele>
        <time>2020-08-28T08:32:34Z</time>
      </trkpt>
      <trkpt lat="42.81238" lon="2.2942">
        <ele>435.2</ele>
        <time>2020-08-28T08:33:23Z</time>
      </trkpt>
      <trkpt lat="42.8124" lon="2.29296">
        <ele>438.7</ele>
        <time>2020-08-28T08:34:13Z</time>
      </trkpt>
      <trkpt lat="42.81233" lon="2.29169">
        <ele>442.2</ele>
        <time>2020-08-28T08:35:04Z</time>
      </trkpt>
      <trkpt lat="42.81221" lon="2.29042">
        <ele>445.5</ele>
        <time>2020-08-28T08:35:58Z</time>
      </trkpt>
      <trkpt lat="42.81201" lon="2.28919">
        <ele>447.8</ele>
        <time>2020-08-28T08:36:39Z</time>
      </trkpt>
      <trkpt lat="42.81156" lon="2.28801">
        <ele>450</ele>
        <time>2020-08-28T08:37:25Z</time>
      </trkpt>
      <trkpt lat="42.81119" lon="2.28675">
        <ele>451.8</ele>
        <time>2020-08-28T08:38:16Z</time>
      </trkpt>
      <trkpt lat="42.81152" lon="2.28548">
        <ele>453.6</ele>
        <time>2020-08-28T08:39:07Z</time>
      </trkpt>
      <trkpt lat="42.81174" lon="2.28418">
        <ele>456</ele>
        <time>2020-08-28T08:39:59Z</time>
      </trkpt>
      <trkpt lat="42.81148" lon="2.28295">
        <ele>458.5</ele>
        <time>2020-08-28T08:40:49Z</time>
      </trkpt>
      <trkpt lat="42.81113" lon="2.28168">
        <ele>462.2</ele>
        <time>2020-08-28T08:41:50Z</time>
      </trkpt>
      <trkpt lat="42.81107" lon="2.28035">
        <ele>469.6</ele>
        <time>2020-08-28T08:42:54Z</time>
      </trkpt>
      <trkpt lat="42.81097" lon="2.27907">
        <ele>475.9</ele>
        <time>2020-08-28T08:43:45Z</time>
      </trkpt>
      <trkpt lat="42.81078" lon="2.27774">
        <ele>480.6</ele>
        <time>2020-08-28T08:44:25Z</time>
      </trkpt>
      <trkpt lat="42.81056" lon="2.27653">
        <ele>485.6</ele>
        <time>2020-08-28T08:44:55Z</time>
      </trkpt>
      <trkpt lat="42.8104" lon="2.27527">
        <ele>495.6</ele>
        <time>2020-08-28T08:45:15Z</time>
      </trkpt>
      <trkpt lat="42.81037" lon="2.2739">
        <ele>498.3</ele>
        <time>2020-08-28T08:45:30Z</time>
      </trkpt>
      <trkpt lat="42.81024" lon="2.27214">
        <ele>499.9</ele>
        <time>2020-08-28T08:45:45Z</time>
      </trkpt>
      <trkpt lat="42.81019" lon="2.27087">
        <ele>498.9</ele>
        <time>2020-08-28T08:45:55Z</time>
      </trkpt>
      <trkpt lat="42.81014" lon="2.26906">
        <ele>497.2</ele>
        <time>2020-08-28T08:46:10Z</time>
      </trkpt>
      <trkpt lat="42.81002" lon="2.26733">
        <ele>494.6</ele>
        <time>2020-08-28T08:46:25Z</time>
      </trkpt>
      <trkpt lat="42.80982" lon="2.26564">
        <ele>491.3</ele>
        <time>2020-08-28T08:46:40Z</time>
      </trkpt>
      <trkpt lat="42.80961" lon="2.26416">
        <ele>488.6</ele>
        <time>2020-08-28T08:46:55Z</time>
      </trkpt>
      <trkpt lat="42.80972" lon="2.26263">
        <ele>485.2</ele>
        <time>2020-08-28T08:47:10Z</time>
      </trkpt>
      <trkpt lat="42.81008" lon="2.2609">
        <ele>481.4</ele>
        <time>2020-08-28T08:47:25Z</time>
      </trkpt>
      <trkpt lat="42.81043" lon="2.25965">
        <ele>478.4</ele>
        <time>2020-08-28T08:47:35Z</time>
      </trkpt>
      <trkpt lat="42.81103" lon="2.25857">
        <ele>475.5</ele>
        <time>2020-08-28T08:47:45Z</time>
      </trkpt>
      <trkpt lat="42.81129" lon="2.2574">
        <ele>472.8</ele>
        <time>2020-08-28T08:47:55Z</time>
      </trkpt>
      <trkpt lat="42.81124" lon="2.2561">
        <ele>469.8</ele>
        <time>2020-08-28T08:48:05Z</time>
      </trkpt>
      <trkpt lat="42.81112" lon="2.25471">
        <ele>464.5</ele>
        <time>2020-08-28T08:48:15Z</time>
      </trkpt>
      <trkpt lat="42.81104" lon="2.25347">
        <ele>460.6</ele>
        <time>2020-08-28T08:48:25Z</time>
      </trkpt>
      <trkpt lat="42.81082" lon="2.25192">
        <ele>455.1</ele>
        <time>2020-08-28T08:48:40Z</time>
      </trkpt>
      <trkpt lat="42.81036" lon="2.25016">
        <ele>451.4</ele>
        <time>2020-08-28T08:48:55Z</time>
      </trkpt>
      <trkpt lat="42.81038" lon="2.24879">
        <ele>447.1</ele>
        <time>2020-08-28T08:49:05Z</time>
      </trkpt>
      <trkpt lat="42.81054" lon="2.24741">
        <ele>442</ele>
        <time>2020-08-28T08:49:15Z</time>
      </trkpt>
      <trkpt lat="42.81066" lon="2.24597">
        <ele>436.5</ele>
        <time>2020-08-28T08:49:25Z</time>
      </trkpt>
      <trkpt lat="42.81113" lon="2.2447">
        <ele>430.9</ele>
        <time>2020-08-28T08:49:34Z</time>
      </trkpt>
      <trkpt lat="42.81137" lon="2.24329">
        <ele>426</ele>
        <time>2020-08-28T08:49:44Z</time>
      </trkpt>
      <trkpt lat="42.8115" lon="2.24184">
        <ele>420.1</ele>
        <time>2020-08-28T08:49:54Z</time>
      </trkpt>
      <trkpt lat="42.81172" lon="2.24052">
        <ele>415.7</ele>
        <time>2020-08-28T08:50:04Z</time>
      </trkpt>
      <trkpt lat="42.81172" lon="2.23914">
        <ele>408.9</ele>
        <time>2020-08-28T08:50:19Z</time>
      </trkpt>
      <trkpt lat="42.81143" lon="2.23794">
        <ele>403.9</ele>
        <time>2020-08-28T08:52:52Z</time>
      </trkpt>
      <trkpt lat="42.81075" lon="2.23696">
        <ele>402.2</ele>
        <time>2020-08-28T08:53:22Z</time>
      </trkpt>
      <trkpt lat="42.81" lon="2.23609">
        <ele>400.7</ele>
        <time>2020-08-28T08:53:52Z</time>
      </trkpt>
      <trkpt lat="42.80902" lon="2.23568">
        <ele>400.4</ele>
        <time>2020-08-28T08:54:27Z</time>
      </trkpt>
      <trkpt lat="42.80816" lon="2.23617">
        <ele>400.1</ele>
        <time>2020-08-28T08:54:57Z</time>
      </trkpt>
      <trkpt lat="42.80728" lon="2.23672">
        <ele>399.6</ele>
        <time>2020-08-28T08:55:27Z</time>
      </trkpt>
      <trkpt lat="42.80632" lon="2.23677">
        <ele>400.8</ele>
        <time>2020-08-28T08:55:57Z</time>
      </trkpt>
      <trkpt lat="42.80552" lon="2.2359">
        <ele>404.2</ele>
        <time>2020-08-28T08:56:37Z</time>
      </trkpt>
      <trkpt lat="42.8049" lon="2.23481">
        <ele>406.2</ele>
        <time>2020-08-28T08:57:21Z</time>
      </trkpt>
      <trkpt lat="42.80446" lon="2.23362">
        <ele>408.1</ele>
        <time>2020-08-28T08:58:43Z</time>
      </trkpt>
      <trkpt lat="42.80422" lon="2.23238">
        <ele>407.7</ele>
        <time>2020-08-28T08:59:41Z</time>
      </trkpt>
    </trkseg>
  </trk>
</gpx>